createdAt,value
2022-11-30T00:00:37.670Z,21.77
2022-11-30T00:03:04.988Z,22.45
2022-11-30T00:05:31.707Z,22.45
2022-11-30T00:08:01.542Z,22.70
2022-11-30T00:10:28.154Z,21.08
2022-11-30T00:12:54.812Z,23.52
2022-11-30T00:15:21.347Z,22.00
2022-11-30T00:17:48.305Z,20.55
2022-11-30T00:20:16.045Z,23.05
2022-11-30T00:22:42.998Z,20.15
2022-11-30T00:25:10.221Z,19.17
2022-11-30T00:27:36.841Z,19.75
2022-11-30T00:30:03.599Z,19.20
2022-11-30T00:32:30.183Z,21.17
2022-11-30T00:34:56.831Z,19.30
2022-11-30T00:37:23.560Z,19.15
2022-11-30T00:39:50.172Z,18.77
2022-11-30T00:42:16.816Z,19.25
2022-11-30T00:44:43.493Z,18.33
2022-11-30T00:47:10.162Z,18.67
2022-11-30T00:49:36.799Z,19.73
2022-11-30T00:52:04.271Z,19.10
2022-11-30T00:54:30.952Z,18.25
2022-11-30T00:56:57.562Z,19.75
2022-11-30T00:59:24.137Z,20.15
2022-11-30T01:01:50.755Z,18.98
2022-11-30T01:04:17.352Z,18.13
2022-11-30T01:06:43.925Z,19.83
2022-11-30T01:09:10.648Z,18.58
2022-11-30T01:11:37.279Z,21.05
2022-11-30T01:14:04.160Z,19.25
2022-11-30T01:16:32.992Z,19.55
2022-11-30T01:19:00.048Z,18.17
2022-11-30T01:21:28.627Z,19.63
2022-11-30T01:23:56.100Z,19.65
2022-11-30T01:26:23.451Z,20.17
2022-11-30T01:28:54.508Z,18.98
2022-11-30T01:31:23.772Z,20.38
2022-11-30T01:33:52.536Z,19.75
2022-11-30T01:36:21.706Z,19.95
2022-11-30T01:38:51.055Z,20.50
2022-11-30T01:41:21.916Z,19.90
2022-11-30T01:43:52.386Z,19.27
2022-11-30T01:46:42.340Z,20.00
2022-11-30T01:49:08.829Z,19.02
2022-11-30T01:51:40.671Z,20.45
2022-11-30T01:54:10.836Z,18.40
2022-11-30T01:56:45.052Z,19.02
2022-11-30T01:59:11.831Z,19.10
2022-11-30T02:01:38.416Z,18.77
2022-11-30T02:04:20.797Z,19.02
2022-11-30T02:06:48.194Z,19.38
2022-11-30T02:09:16.568Z,19.08
2022-11-30T02:11:43.088Z,18.85
2022-11-30T02:14:23.621Z,19.48
2022-11-30T02:17:08.565Z,19.33
2022-11-30T02:20:06.727Z,19.40
2022-11-30T02:22:38.916Z,19.10
2022-11-30T02:25:20.098Z,19.92
2022-11-30T02:28:07.391Z,19.15
2022-11-30T02:30:37.715Z,19.02
2022-11-30T02:33:11.910Z,19.85
2022-11-30T02:35:42.595Z,20.42
2022-11-30T02:40:35.982Z,20.65
2022-11-30T02:43:04.985Z,20.17
2022-11-30T02:45:38.117Z,20.75
2022-11-30T02:48:09.841Z,20.15
2022-11-30T02:50:45.849Z,21.23
2022-11-30T02:53:13.289Z,20.23
2022-11-30T02:55:40.166Z,19.58
2022-11-30T02:58:06.946Z,21.23
2022-11-30T03:00:33.633Z,20.88
2022-11-30T03:03:00.227Z,20.48
2022-11-30T03:05:26.832Z,20.73
2022-11-30T03:07:53.444Z,20.30
2022-11-30T03:10:20.062Z,20.63
2022-11-30T03:12:46.593Z,21.17
2022-11-30T03:15:13.138Z,20.73
2022-11-30T03:17:39.788Z,20.90
2022-11-30T03:20:07.530Z,22.08
2022-11-30T03:22:34.096Z,20.80
2022-11-30T03:25:00.612Z,20.52
2022-11-30T03:27:27.116Z,21.02
2022-11-30T03:29:53.742Z,21.27
2022-11-30T03:32:20.255Z,20.50
2022-11-30T03:34:46.908Z,20.45
2022-11-30T03:37:13.630Z,21.33
2022-11-30T03:39:40.239Z,20.73
2022-11-30T03:42:06.787Z,20.45
2022-11-30T03:44:33.333Z,21.15
2022-11-30T03:46:59.840Z,20.65
2022-11-30T03:49:26.448Z,20.80
2022-11-30T03:51:52.983Z,21.48
2022-11-30T03:54:19.557Z,20.80
2022-11-30T03:56:46.142Z,19.25
2022-11-30T03:59:12.674Z,20.70
2022-11-30T04:01:42.778Z,19.80
2022-11-30T04:04:09.647Z,20.90
2022-11-30T04:06:36.171Z,20.48
2022-11-30T04:09:02.972Z,20.25
2022-11-30T04:11:29.770Z,19.55
2022-11-30T04:13:56.304Z,19.83
2022-11-30T04:16:22.967Z,20.27
2022-11-30T04:18:49.608Z,20.15
2022-11-30T04:21:16.204Z,19.92
2022-11-30T04:23:42.735Z,20.50
2022-11-30T04:26:13.156Z,19.80
2022-11-30T04:28:40.174Z,20.77
2022-11-30T04:31:06.898Z,19.70
2022-11-30T04:33:33.502Z,20.00
2022-11-30T04:36:03.298Z,20.38
2022-11-30T04:38:30.454Z,19.63
2022-11-30T04:40:57.089Z,20.50
2022-11-30T04:43:24.037Z,19.73
2022-11-30T04:45:51.248Z,19.83
2022-11-30T04:48:18.974Z,19.25
2022-11-30T04:50:45.588Z,18.23
2022-11-30T04:53:12.174Z,22.02
2022-11-30T04:55:38.797Z,19.65
2022-11-30T04:58:06.127Z,19.35
2022-11-30T05:00:34.560Z,19.70
2022-11-30T05:03:01.115Z,19.75
2022-11-30T05:05:27.851Z,19.52
2022-11-30T05:07:58.966Z,19.38
2022-11-30T05:10:26.891Z,19.25
2022-11-30T05:12:53.511Z,20.20
2022-11-30T05:15:20.614Z,18.38
2022-11-30T05:17:47.145Z,19.20
2022-11-30T05:20:13.692Z,19.55
2022-11-30T05:22:40.457Z,18.90
2022-11-30T05:25:07.962Z,19.50
2022-11-30T05:27:35.387Z,19.83
2022-11-30T05:30:02.350Z,19.63
2022-11-30T05:32:28.914Z,20.02
2022-11-30T05:34:55.847Z,20.45
2022-11-30T05:37:22.498Z,20.30
2022-11-30T05:39:49.086Z,20.80
2022-11-30T05:42:15.758Z,22.88
2022-11-30T05:44:42.400Z,23.10
2022-11-30T05:47:09.343Z,22.67
2022-11-30T05:49:35.984Z,22.42
2022-11-30T05:52:02.503Z,22.42
2022-11-30T05:54:29.095Z,20.52
2022-11-30T05:56:55.587Z,22.27
2022-11-30T05:59:23.232Z,22.08
2022-11-30T06:01:52.703Z,22.40
2022-11-30T06:04:19.673Z,22.00
2022-11-30T06:06:46.296Z,22.42
2022-11-30T06:09:12.913Z,23.00
2022-11-30T06:11:39.467Z,23.88
2022-11-30T06:14:06.094Z,22.73
2022-11-30T06:16:32.697Z,23.25
2022-11-30T06:18:59.282Z,23.08
2022-11-30T06:21:25.817Z,23.40
2022-11-30T06:23:52.735Z,22.45
2022-11-30T06:26:19.570Z,22.55
2022-11-30T06:28:48.774Z,22.45
2022-11-30T06:31:16.296Z,22.50
2022-11-30T06:33:43.390Z,23.98
2022-11-30T06:36:10.325Z,23.42
2022-11-30T06:38:37.281Z,22.80
2022-11-30T06:41:06.094Z,23.58
2022-11-30T06:43:36.799Z,23.60
2022-11-30T06:48:30.699Z,24.08
2022-11-30T06:50:58.496Z,23.75
2022-11-30T06:53:25.344Z,25.23
2022-11-30T06:55:52.365Z,24.40
2022-11-30T06:58:19.162Z,25.67
2022-11-30T07:00:45.873Z,24.90
2022-11-30T07:03:12.914Z,24.70
2022-11-30T07:05:43.883Z,25.63
2022-11-30T07:08:11.354Z,24.10
2022-11-30T07:10:42.198Z,23.77
2022-11-30T07:13:14.183Z,24.17
2022-11-30T07:15:41.907Z,23.30
2022-11-30T07:18:09.220Z,24.52
2022-11-30T07:20:36.374Z,23.73
2022-11-30T07:23:23.314Z,24.63
2022-11-30T07:26:06.686Z,23.08
2022-11-30T07:28:36.004Z,25.08
2022-11-30T07:31:16.545Z,23.77
2022-11-30T07:33:43.570Z,23.13
2022-11-30T07:36:10.322Z,23.33
2022-11-30T07:38:37.390Z,25.00
2022-11-30T07:41:04.152Z,22.63
2022-11-30T07:43:30.872Z,21.88
2022-11-30T07:45:57.591Z,21.58
2022-11-30T07:48:24.191Z,18.90
2022-11-30T07:50:51.137Z,19.42
2022-11-30T07:53:17.945Z,20.27
2022-11-30T07:55:44.800Z,18.88
2022-11-30T07:58:17.153Z,17.75
2022-11-30T08:00:44.231Z,16.13
2022-11-30T08:03:10.812Z,17.83
2022-11-30T08:05:37.402Z,17.23
2022-11-30T08:08:03.931Z,17.95
2022-11-30T08:10:30.644Z,18.05
2022-11-30T08:12:57.140Z,17.02
2022-11-30T08:15:30.567Z,17.63
2022-11-30T08:18:05.286Z,17.45
2022-11-30T08:20:31.867Z,16.10
2022-11-30T08:22:58.802Z,17.23
2022-11-30T08:25:25.348Z,16.15
2022-11-30T08:27:51.892Z,16.17
2022-11-30T08:30:18.455Z,16.02
2022-11-30T08:32:45.056Z,16.05
2022-11-30T08:35:11.814Z,15.07
2022-11-30T08:37:38.777Z,15.10
2022-11-30T08:40:06.496Z,16.55
2022-11-30T08:42:33.311Z,16.38
2022-11-30T08:45:00.492Z,15.80
2022-11-30T08:47:30.124Z,16.55
2022-11-30T08:49:57.999Z,17.08
2022-11-30T08:52:24.918Z,17.40
2022-11-30T08:54:51.679Z,18.05
2022-11-30T08:57:20.787Z,17.50
2022-11-30T08:59:47.896Z,18.90
2022-11-30T09:02:19.627Z,18.30
2022-11-30T09:04:49.108Z,18.35
2022-11-30T09:07:16.084Z,20.67
2022-11-30T09:09:42.658Z,19.52
2022-11-30T09:12:09.485Z,19.30
2022-11-30T09:14:36.140Z,21.05
2022-11-30T09:17:03.077Z,21.13
2022-11-30T09:19:29.575Z,20.50
2022-11-30T09:21:56.080Z,19.98
2022-11-30T09:24:22.749Z,23.45
2022-11-30T09:26:49.312Z,21.98
2022-11-30T09:29:15.817Z,22.42
2022-11-30T09:31:42.337Z,23.77
2022-11-30T09:34:11.380Z,22.70
2022-11-30T09:36:38.272Z,23.58
2022-11-30T09:39:04.772Z,25.60
2022-11-30T09:41:34.273Z,23.67
2022-11-30T09:44:28.151Z,24.27
2022-11-30T09:47:32.549Z,23.75
2022-11-30T09:50:04.826Z,25.65
2022-11-30T09:52:37.806Z,23.98
2022-11-30T09:55:13.971Z,25.15
2022-11-30T09:57:50.644Z,23.27
2022-11-30T10:00:21.873Z,24.88
2022-11-30T10:02:53.529Z,24.65
2022-11-30T10:05:23.550Z,23.90
2022-11-30T10:08:17.995Z,25.83
2022-11-30T10:11:03.178Z,25.58
2022-11-30T10:13:55.317Z,24.15
2022-11-30T10:16:46.426Z,23.80
2022-11-30T10:19:18.627Z,24.08
2022-11-30T10:22:31.080Z,24.85
2022-11-30T10:25:00.179Z,25.05
2022-11-30T10:27:52.141Z,23.75
2022-11-30T10:30:24.633Z,24.10
2022-11-30T10:32:54.307Z,21.90
2022-11-30T10:35:34.821Z,23.05
2022-11-30T10:38:19.761Z,22.25
2022-11-30T10:40:57.214Z,22.80
2022-11-30T10:43:30.152Z,22.40
2022-11-30T10:45:56.829Z,22.00
2022-11-30T10:48:47.505Z,24.80
2022-11-30T10:51:14.371Z,23.73
2022-11-30T10:53:41.152Z,23.92
2022-11-30T10:56:12.885Z,24.92
2022-11-30T10:58:56.757Z,23.63
2022-11-30T11:01:36.136Z,20.65
2022-11-30T11:04:23.920Z,20.48
2022-11-30T11:07:09.278Z,21.30
2022-11-30T11:09:37.149Z,23.75
2022-11-30T11:12:25.574Z,23.08
2022-11-30T11:15:10.633Z,22.55
2022-11-30T11:17:37.228Z,22.13
2022-11-30T11:20:04.511Z,21.63
2022-11-30T11:22:31.607Z,21.25
2022-11-30T11:25:43.215Z,20.98
2022-11-30T11:28:18.816Z,21.50
2022-11-30T11:30:45.404Z,22.38
2022-11-30T11:33:12.082Z,21.63
2022-11-30T11:35:53.361Z,22.45
2022-11-30T11:38:29.568Z,23.25
2022-11-30T11:41:02.716Z,23.52
2022-11-30T11:43:40.822Z,23.92
2022-11-30T11:46:13.853Z,23.08
2022-11-30T11:48:46.064Z,24.70
2022-11-30T11:51:13.954Z,24.38
2022-11-30T11:53:54.852Z,24.33
2022-11-30T11:56:28.363Z,23.65
2022-11-30T11:59:00.532Z,22.30
2022-11-30T12:01:42.108Z,23.17
2022-11-30T12:04:48.237Z,22.00
2022-11-30T12:07:24.155Z,22.95
2022-11-30T12:10:03.057Z,22.85
2022-11-30T12:12:29.651Z,23.20
2022-11-30T12:14:56.603Z,22.27
2022-11-30T12:17:52.116Z,23.50
2022-11-30T12:20:47.731Z,23.98
2022-11-30T12:23:45.179Z,23.92
2022-11-30T12:26:36.022Z,23.63
2022-11-30T12:29:18.470Z,23.85
2022-11-30T12:32:10.740Z,23.15
2022-11-30T12:34:48.106Z,25.98
2022-11-30T12:37:41.695Z,25.10
2022-11-30T12:40:38.280Z,23.20
2022-11-30T12:43:23.318Z,25.88
2022-11-30T12:45:56.006Z,25.50
2022-11-30T12:48:31.843Z,26.58
2022-11-30T12:51:30.153Z,26.85
2022-11-30T12:53:59.805Z,25.85
2022-11-30T12:56:29.159Z,26.60
2022-11-30T12:59:06.964Z,26.70
2022-11-30T13:02:00.732Z,25.42
2022-11-30T13:04:59.031Z,25.35
2022-11-30T13:07:43.805Z,25.83
2022-11-30T13:10:26.675Z,25.30
2022-11-30T13:12:55.961Z,27.23
2022-11-30T13:15:25.745Z,28.55
2022-11-30T13:17:53.585Z,28.93
2022-11-30T13:20:32.782Z,29.13
2022-11-30T13:23:13.936Z,27.55
2022-11-30T13:26:08.947Z,27.65
2022-11-30T13:29:06.426Z,25.83
2022-11-30T13:31:46.095Z,25.42
2022-11-30T13:34:30.212Z,25.98
2022-11-30T13:37:03.339Z,24.02
2022-11-30T13:39:42.954Z,24.80
2022-11-30T13:42:24.469Z,23.92
2022-11-30T13:44:51.322Z,23.88
2022-11-30T13:47:36.258Z,25.70
2022-11-30T13:50:09.455Z,25.38
2022-11-30T13:53:17.293Z,23.90
2022-11-30T13:55:51.921Z,23.70
2022-11-30T13:58:19.930Z,24.58
2022-11-30T14:01:31.946Z,24.55
2022-11-30T14:04:20.193Z,24.38
2022-11-30T14:06:52.903Z,24.92
2022-11-30T14:09:40.920Z,24.48
2022-11-30T14:12:37.230Z,23.58
2022-11-30T14:15:38.751Z,23.50
2022-11-30T14:18:21.957Z,24.05
2022-11-30T14:21:12.618Z,24.02
2022-11-30T14:23:39.199Z,24.98
2022-11-30T14:26:13.485Z,24.45
2022-11-30T14:28:46.179Z,24.17
2022-11-30T14:31:20.634Z,23.92
2022-11-30T14:34:02.634Z,22.40
2022-11-30T14:36:37.752Z,23.02
2022-11-30T14:39:04.700Z,23.40
2022-11-30T14:41:32.127Z,22.80
2022-11-30T14:44:11.951Z,23.10
2022-11-30T14:46:38.722Z,22.80
2022-11-30T14:49:15.715Z,22.70
2022-11-30T14:51:44.988Z,22.90
2022-11-30T14:54:27.190Z,23.25
2022-11-30T14:57:14.787Z,22.52
2022-11-30T14:59:53.830Z,20.77
2022-11-30T15:02:31.061Z,22.30
2022-11-30T15:04:59.531Z,22.13
2022-11-30T15:07:27.940Z,22.15
2022-11-30T15:10:08.291Z,21.58
2022-11-30T15:12:35.438Z,21.27
2022-11-30T15:15:14.670Z,21.05
2022-11-30T15:17:48.094Z,20.58
2022-11-30T15:20:18.758Z,19.73
2022-11-30T15:25:12.741Z,19.75
2022-11-30T15:27:39.765Z,19.55
2022-11-30T15:30:07.361Z,20.15
2022-11-30T15:32:34.105Z,19.27
2022-11-30T15:35:01.069Z,20.52
2022-11-30T15:37:33.554Z,21.15
2022-11-30T15:40:02.893Z,21.30
2022-11-30T15:42:39.931Z,20.92
2022-11-30T15:45:29.760Z,20.15
2022-11-30T15:47:57.714Z,22.63
2022-11-30T15:50:28.615Z,21.73
2022-11-30T15:53:02.866Z,21.30
2022-11-30T15:55:51.593Z,20.35
2022-11-30T15:58:30.085Z,19.90
2022-11-30T16:01:05.908Z,19.92
2022-11-30T16:03:34.109Z,20.52
2022-11-30T16:06:04.834Z,19.35
2022-11-30T16:11:01.918Z,14.02
2022-11-30T16:13:31.628Z,14.65
2022-11-30T16:16:00.575Z,14.48
2022-11-30T16:18:28.295Z,13.77
2022-11-30T16:20:59.952Z,11.95
2022-11-30T16:23:27.646Z,12.23
2022-11-30T16:25:54.193Z,11.55
2022-11-30T16:28:22.448Z,12.10
2022-11-30T16:30:49.810Z,11.65
2022-11-30T16:33:19.727Z,12.75
2022-11-30T16:36:03.067Z,13.77
2022-11-30T16:38:29.918Z,13.70
2022-11-30T16:41:15.194Z,13.95
2022-11-30T16:43:42.619Z,14.80
2022-11-30T16:46:24.380Z,14.88
2022-11-30T16:48:51.877Z,16.27
2022-11-30T16:51:27.654Z,15.30
2022-11-30T16:53:54.637Z,17.77
2022-11-30T16:56:21.911Z,17.20
2022-11-30T16:58:49.183Z,17.60
2022-11-30T17:01:34.874Z,17.65
2022-11-30T17:04:23.780Z,17.67
2022-11-30T17:06:53.609Z,17.35
2022-11-30T17:09:23.144Z,18.15
2022-11-30T17:11:51.191Z,18.50
2022-11-30T17:14:19.366Z,19.70
2022-11-30T17:16:46.019Z,20.67
2022-11-30T17:19:12.834Z,21.48
2022-11-30T17:21:40.266Z,18.98
2022-11-30T17:24:07.323Z,20.20
2022-11-30T17:26:34.077Z,20.98
2022-11-30T17:29:00.645Z,19.55
2022-11-30T17:31:28.095Z,19.77
2022-11-30T17:33:54.743Z,18.65
2022-11-30T17:36:21.299Z,18.55
2022-11-30T17:38:47.849Z,19.05
2022-11-30T17:41:19.310Z,18.77
2022-11-30T17:43:46.844Z,20.77
2022-11-30T17:46:16.026Z,20.20
2022-11-30T17:48:43.863Z,20.95
2022-11-30T17:51:12.244Z,20.00
2022-11-30T17:53:39.889Z,20.08
2022-11-30T17:56:15.606Z,21.38
2022-11-30T17:58:44.442Z,21.45
2022-11-30T18:01:26.074Z,21.65
2022-11-30T18:03:53.699Z,21.83
2022-11-30T18:06:20.657Z,21.10
2022-11-30T18:08:48.366Z,21.38
2022-11-30T18:11:18.970Z,21.40
2022-11-30T18:16:15.670Z,21.90
2022-11-30T18:18:47.393Z,22.92
2022-11-30T18:21:17.068Z,23.70
2022-11-30T18:23:43.943Z,24.90
2022-11-30T18:26:13.346Z,23.45
2022-11-30T18:28:40.049Z,23.42
2022-11-30T18:31:07.054Z,22.95
2022-11-30T18:33:34.780Z,22.55
2022-11-30T18:36:02.339Z,22.40
2022-11-30T18:38:34.189Z,20.85
2022-11-30T18:41:04.107Z,22.73
2022-11-30T18:43:31.738Z,21.73
2022-11-30T18:46:10.004Z,22.17
2022-11-30T18:48:37.909Z,21.38
2022-11-30T18:51:12.930Z,21.05
2022-11-30T18:53:39.622Z,21.83
2022-11-30T18:56:14.798Z,21.73
2022-11-30T18:58:42.314Z,22.52
2022-11-30T19:01:18.164Z,21.65
2022-11-30T19:03:50.632Z,21.20
2022-11-30T19:06:17.385Z,21.20
2022-11-30T19:08:43.948Z,21.38
2022-11-30T19:11:10.533Z,23.33
2022-11-30T19:13:37.356Z,23.17
2022-11-30T19:16:06.403Z,22.80
2022-11-30T19:18:33.516Z,23.40
2022-11-30T19:21:00.295Z,21.73
2022-11-30T19:23:27.314Z,22.55
2022-11-30T19:26:00.117Z,22.67
2022-11-30T19:28:30.008Z,21.85
2022-11-30T19:30:57.493Z,21.52
2022-11-30T19:33:24.247Z,20.60
2022-11-30T19:35:50.772Z,21.58
2022-11-30T19:38:17.592Z,22.17
2022-11-30T19:40:44.418Z,20.77
2022-11-30T19:43:11.078Z,21.50
2022-11-30T19:45:37.713Z,21.98
2022-11-30T19:48:04.506Z,21.83
2022-11-30T19:50:34.414Z,22.38
2022-11-30T19:53:00.992Z,23.42
2022-11-30T19:55:33.654Z,22.38
2022-11-30T19:58:01.464Z,22.15
2022-11-30T20:00:28.211Z,22.38
2022-11-30T20:02:54.866Z,21.33
2022-11-30T20:05:21.827Z,21.40
2022-11-30T20:07:51.277Z,22.30
2022-11-30T20:10:17.915Z,21.85
2022-11-30T20:12:45.292Z,20.75
2022-11-30T20:15:12.193Z,21.17
2022-11-30T20:17:38.718Z,20.83
2022-11-30T20:20:06.033Z,20.90
2022-11-30T20:22:33.585Z,21.48
2022-11-30T20:25:00.115Z,21.92
2022-11-30T20:27:26.797Z,20.02
2022-11-30T20:29:53.547Z,20.33
2022-11-30T20:32:20.087Z,20.70
2022-11-30T20:34:46.854Z,20.02
2022-11-30T20:37:15.637Z,20.70
2022-11-30T20:39:45.676Z,20.63
2022-11-30T20:44:40.082Z,18.13
2022-11-30T20:47:06.657Z,20.38
2022-11-30T20:49:33.249Z,19.27
2022-11-30T20:51:59.898Z,20.60
2022-11-30T20:54:31.657Z,20.65
2022-11-30T20:56:59.006Z,19.88
2022-11-30T20:59:26.563Z,18.63
2022-11-30T21:05:46.862Z,16.88
2022-11-30T21:08:13.497Z,17.65
2022-11-30T21:10:40.335Z,16.70
2022-11-30T21:13:06.835Z,15.18
2022-11-30T21:15:33.510Z,15.80
2022-11-30T21:18:00.132Z,13.75
2022-11-30T21:20:26.818Z,15.23
2022-11-30T21:22:53.372Z,15.13
2022-11-30T21:25:19.918Z,14.85
2022-11-30T21:27:52.265Z,16.20
2022-11-30T21:30:19.256Z,15.75
2022-11-30T21:32:45.826Z,15.43
2022-11-30T21:35:12.686Z,14.52
2022-11-30T21:37:39.227Z,14.60
2022-11-30T21:40:06.449Z,14.40
2022-11-30T21:42:33.069Z,15.05
2022-11-30T21:44:59.620Z,14.23
2022-11-30T21:47:29.737Z,14.77
2022-11-30T21:49:56.908Z,13.80
2022-11-30T21:52:23.452Z,15.52
2022-11-30T21:54:53.533Z,15.73
2022-11-30T21:57:21.453Z,15.40
2022-11-30T21:59:48.520Z,14.50
2022-11-30T22:02:15.344Z,15.75
2022-11-30T22:04:42.491Z,15.43
2022-11-30T22:07:12.211Z,15.93
2022-11-30T22:09:38.938Z,16.20
2022-11-30T22:12:05.644Z,15.23
2022-11-30T22:14:32.235Z,16.45
2022-11-30T22:16:58.813Z,16.40
2022-11-30T22:19:25.458Z,15.73
2022-11-30T22:21:52.393Z,16.73
2022-11-30T22:24:19.150Z,16.10
2022-11-30T22:26:46.145Z,17.42
2022-11-30T22:29:17.780Z,17.95
2022-11-30T22:31:46.684Z,18.48
2022-11-30T22:34:13.961Z,18.08
2022-11-30T22:36:44.578Z,18.52
2022-11-30T22:41:40.678Z,18.40
2022-11-30T22:44:07.592Z,17.95
2022-11-30T22:46:36.722Z,19.00
2022-11-30T22:49:05.802Z,19.60
2022-11-30T22:51:34.009Z,18.85
2022-11-30T22:54:01.454Z,20.05
2022-11-30T22:56:41.718Z,19.58
2022-11-30T22:59:11.550Z,18.77
2022-11-30T23:01:42.220Z,19.50
2022-11-30T23:06:38.330Z,19.25
2022-11-30T23:09:06.345Z,19.73
2022-11-30T23:11:33.746Z,18.60
2022-11-30T23:14:00.645Z,18.98
2022-11-30T23:16:27.340Z,17.52
2022-11-30T23:18:57.094Z,19.35
2022-11-30T23:21:30.204Z,19.60
2022-11-30T23:23:58.812Z,18.33
2022-11-30T23:26:28.267Z,19.63
2022-11-30T23:28:58.075Z,18.52
2022-11-30T23:31:34.063Z,19.00
2022-11-30T23:34:04.332Z,18.00
2022-11-30T23:36:30.991Z,17.27
2022-11-30T23:39:00.339Z,17.25
2022-11-30T23:41:27.233Z,17.48
2022-11-30T23:43:53.787Z,16.40
2022-11-30T23:46:20.573Z,16.15
2022-11-30T23:48:47.308Z,15.55
2022-11-30T23:51:13.874Z,16.50
2022-11-30T23:53:40.489Z,16.52
2022-11-30T23:56:11.100Z,16.83
